Time;durP1;ratioP1;P1;durP2;ratioP2;P2;SDS_P1;SDS_P2;PMS_P1;PMS_P2;Temp;Humidity;BMP_temperature;BMP_pressure;BME280_temperature;BME280_humidity;BME280_pressure;Samples;Min_cycle;Max_cycle;Signal;HPM_P1;HPM_P2
2022/08/25 00:02:00;;;;;;;16.35;10.93;;;;;;;21.58;62.77;100669.63;5083712;28;20055;-57
2022/08/25 00:04:26;;;;;;;23.17;11.30;;;;;;;21.58;62.18;100681.03;5079414;28;20232;-57
2022/08/25 00:06:54;;;;;;;16.50;11.05;;;;;;;21.60;62.31;100687.06;5079899;28;20029;-57
2022/08/25 00:09:23;;;;;;;19.58;11.82;;;;;;;21.39;62.14;100673.16;5078211;28;20033;-57
2022/08/25 00:11:49;;;;;;;19.75;11.45;;;;;;;21.48;62.50;100688.53;5083818;28;20028;-57
2022/08/25 00:14:20;;;;;;;19.15;11.35;;;;;;;21.50;62.57;100686.66;5086720;28;20030;-57
2022/08/25 00:16:47;;;;;;;22.20;11.80;;;;;;;21.48;62.25;100688.53;5083731;28;20040;-57
2022/08/25 00:19:17;;;;;;;23.98;11.52;;;;;;;21.26;62.46;100640.47;5083620;28;20053;-57
2022/08/25 00:21:44;;;;;;;21.52;11.68;;;;;;;21.53;62.24;100689.19;5093865;28;20040;-58
2022/08/25 00:24:12;;;;;;;21.48;11.50;;;;;;;21.50;62.38;100677.91;5083150;28;20031;-58
2022/08/25 00:26:40;;;;;;;21.58;12.05;;;;;;;21.23;62.44;100640.63;5084086;28;20422;-57
2022/08/25 00:29:07;;;;;;;18.90;11.40;;;;;;;21.50;62.56;100681.38;5083386;28;20356;-58
2022/08/25 00:31:34;;;;;;;16.05;10.85;;;;;;;21.49;62.53;100679.72;5083134;28;20028;-58
2022/08/25 00:34:00;;;;;;;22.63;11.27;;;;;;;21.47;62.49;100678.91;5083500;28;20321;-57
2022/08/25 00:36:27;;;;;;;19.17;12.10;;;;;;;21.51;62.17;100684.91;5083326;28;20051;-57
2022/08/25 00:38:53;;;;;;;19.23;11.70;;;;;;;21.46;62.41;100679.00;5083431;28;20020;-58
2022/08/25 00:41:22;;;;;;;17.33;11.25;;;;;;;21.48;62.47;100703.50;5067240;28;20039;-58
2022/08/25 00:43:59;;;;;;;18.50;11.02;;;;;;;21.17;62.49;100632.09;5083512;28;20024;-58
2022/08/25 00:46:30;;;;;;;18.10;11.45;;;;;;;21.16;62.83;100650.63;5063457;28;20036;-57
2022/08/25 00:49:31;;;;;;;15.98;11.32;;;;;;;21.35;63.26;100682.19;5080530;28;20047;-58
2022/08/25 00:52:07;;;;;;;17.55;10.95;;;;;;;21.10;62.94;100641.25;5079273;28;20056;-58
2022/08/25 00:54:41;;;;;;;16.33;11.43;;;;;;;21.17;62.27;100657.59;5094050;28;20083;-58
2022/08/25 00:57:09;;;;;;;18.85;11.75;;;;;;;21.12;62.64;100655.22;5083217;28;20113;-58
2022/08/25 00:59:35;;;;;;;17.80;12.23;;;;;;;21.26;62.77;100680.00;5082947;28;20034;-58
2022/08/25 01:02:03;;;;;;;17.52;11.10;;;;;;;21.01;62.85;100641.72;5083203;28;20104;-58
2022/08/25 01:04:29;;;;;;;18.23;11.13;;;;;;;21.28;62.71;100683.44;5083283;28;20024;-57
2022/08/25 01:06:57;;;;;;;18.30;11.60;;;;;;;21.28;62.76;100684.28;5083444;28;20027;-57
2022/08/25 01:09:22;;;;;;;19.55;11.57;;;;;;;21.26;62.71;100682.63;5083135;28;20316;-57
2022/08/25 01:11:48;;;;;;;20.88;11.90;;;;;;;21.24;62.80;100674.81;5083198;28;20024;-58
2022/08/25 01:14:18;;;;;;;20.65;11.10;;;;;;;21.04;62.60;100641.56;5082983;28;20225;-58
2022/08/25 01:16:44;;;;;;;13.43;10.57;;;;;;;21.25;62.93;100675.66;5083090;28;20020;-57
2022/08/25 01:19:12;;;;;;;16.40;10.50;;;;;;;21.13;62.75;100671.84;5102151;28;20044;-58
2022/08/25 01:21:41;;;;;;;18.15;10.75;;;;;;;20.91;62.74;100638.69;5088323;28;20025;-58
2022/08/25 01:24:10;;;;;;;16.48;11.13;;;;;;;21.13;62.50;100683.25;5082773;28;20028;-57
2022/08/25 01:26:35;;;;;;;18.55;11.10;;;;;;;21.10;62.22;100678.13;5088772;28;20229;-57
2022/08/25 01:29:24;;;;;;;20.38;11.25;;;;;;;21.03;62.38;100674.97;5103126;28;20122;-57
2022/08/25 01:31:55;;;;;;;16.30;11.07;;;;;;;20.98;61.69;100669.06;5103315;28;20095;-57
2022/08/25 01:34:21;;;;;;;19.63;11.80;;;;;;;20.96;61.59;100677.97;5106721;28;20028;-57
2022/08/25 01:36:47;;;;;;;21.95;11.65;;;;;;;20.93;61.50;100672.84;5082645;28;20290;-57
2022/08/25 01:39:13;;;;;;;16.98;11.10;;;;;;;20.95;61.64;100668.34;5082782;28;20047;-57
2022/08/25 01:41:47;;;;;;;17.48;10.98;;;;;;;20.75;61.83;100640.34;5082533;28;20369;-57
2022/08/25 01:44:13;;;;;;;18.55;11.38;;;;;;;20.91;62.15;100670.28;5087297;28;20039;-57
2022/08/25 01:46:40;;;;;;;21.55;11.75;;;;;;;20.94;62.14;100671.94;5106880;28;20032;-57
2022/08/25 01:49:05;;;;;;;15.82;11.25;;;;;;;20.94;62.15;100677.19;5088219;28;20027;-57
2022/08/25 01:51:50;;;;;;;18.85;10.93;;;;;;;20.88;62.55;100672.19;5099683;28;20028;-58
2022/08/25 01:54:15;;;;;;;17.17;10.30;;;;;;;20.83;62.29;100670.63;5094196;28;20028;-57
2022/08/25 01:56:41;;;;;;;16.95;11.88;;;;;;;20.75;62.81;100671.94;5101775;28;20217;-57
2022/08/25 01:59:07;;;;;;;18.63;11.68;;;;;;;20.74;63.31;100681.63;5079868;28;20039;-56
2022/08/25 02:01:33;;;;;;;15.45;11.55;;;;;;;20.79;62.88;100681.41;5086341;28;20028;-57
2022/08/25 02:03:58;;;;;;;16.88;10.23;;;;;;;20.80;62.82;100676.06;5086250;28;20281;-57
2022/08/25 02:06:28;;;;;;;16.10;11.63;;;;;;;20.70;63.37;100672.16;5086102;28;20036;-57
2022/08/25 02:08:57;;;;;;;18.45;11.25;;;;;;;20.79;63.47;100684.91;5086179;28;20032;-57
2022/08/25 02:11:24;;;;;;;15.05;10.50;;;;;;;20.76;63.51;100682.41;5086057;28;20020;-57
2022/08/25 02:13:51;;;;;;;17.45;11.07;;;;;;;20.74;63.59;100679.00;5085713;28;20161;-57
2022/08/25 02:16:29;;;;;;;17.92;11.07;;;;;;;20.45;63.84;100633.84;5085905;28;20030;-57
2022/08/25 02:18:56;;;;;;;15.65;11.60;;;;;;;20.65;63.74;100682.03;5102740;28;20372;-57
2022/08/25 02:21:22;;;;;;;19.23;11.00;;;;;;;20.61;63.57;100683.13;5100005;28;20318;-57
2022/08/25 02:23:48;;;;;;;19.27;12.00;;;;;;;20.61;63.72;100686.59;5085856;28;20035;-57
2022/08/25 02:26:15;;;;;;;17.83;12.23;;;;;;;20.63;63.40;100683.88;5086052;28;20103;-57
2022/08/25 02:28:42;;;;;;;21.42;12.25;;;;;;;20.55;62.96;100678.13;5085887;28;20079;-57
2022/08/25 02:31:08;;;;;;;14.20;11.57;;;;;;;20.62;63.11;100684.81;5085762;28;20029;-56
2022/08/25 02:33:34;;;;;;;19.55;12.45;;;;;;;20.59;62.75;100682.31;5085507;28;20040;-57
2022/08/25 02:36:00;;;;;;;22.45;12.93;;;;;;;20.53;63.17;100679.03;5085628;28;20025;-57
2022/08/25 02:38:27;;;;;;;17.80;12.20;;;;;;;20.53;63.49;100680.84;5068330;28;20025;-57
2022/08/25 02:40:57;;;;;;;21.50;12.85;;;;;;;20.53;63.77;100679.03;5068637;28;20032;-57
2022/08/25 02:43:24;;;;;;;19.90;12.73;;;;;;;20.50;63.48;100671.28;5085655;28;20080;-57
2022/08/25 02:45:51;;;;;;;20.40;12.35;;;;;;;20.53;63.64;100673.78;5079771;28;20029;-57
2022/08/25 02:48:18;;;;;;;19.65;12.50;;;;;;;20.50;63.51;100678.34;5076279;28;20035;-57
2022/08/25 02:50:51;;;;;;;17.10;11.48;;;;;;;20.18;64.04;100630.72;5090387;28;20040;-57
2022/08/25 02:53:18;;;;;;;22.17;12.02;;;;;;;20.45;64.74;100680.34;5102470;28;20133;-57
2022/08/25 02:55:44;;;;;;;15.65;12.65;;;;;;;20.41;64.92;100676.13;5084968;28;20277;-57
2022/08/25 02:58:09;;;;;;;17.55;11.75;;;;;;;20.34;65.04;100663.28;5085123;28;20095;-58
2022/08/25 03:00:36;;;;;;;16.45;10.95;;;;;;;20.34;65.24;100665.91;5085181;28;20025;-57
2022/08/25 03:03:01;;;;;;;17.95;11.18;;;;;;;20.41;65.00;100679.63;5094267;28;20209;-57
2022/08/25 03:05:27;;;;;;;15.90;11.35;;;;;;;20.40;65.18;100679.72;5101339;28;20340;-57
2022/08/25 03:07:52;;;;;;;17.88;11.77;;;;;;;20.35;65.27;100679.91;5085154;28;20028;-56
2022/08/25 03:10:18;;;;;;;18.90;11.25;;;;;;;20.37;65.30;100678.06;5084922;28;20027;-57
2022/08/25 03:12:45;;;;;;;19.35;11.65;;;;;;;20.33;65.56;100682.59;5084928;28;20337;-58
2022/08/25 03:15:15;;;;;;;17.38;12.25;;;;;;;20.32;65.41;100675.66;5084879;28;20033;-57
2022/08/25 03:17:42;;;;;;;18.58;12.65;;;;;;;20.26;65.85;100669.81;5084520;28;20355;-58
2022/08/25 03:20:08;;;;;;;23.20;12.85;;;;;;;20.35;65.25;100678.13;5085982;28;20032;-58
2022/08/25 03:22:35;;;;;;;19.60;13.32;;;;;;;20.35;65.49;100672.88;5105080;28;20244;-58
2022/08/25 03:27:47;;;;;;;20.77;14.23;;;;;;;20.41;64.88;100671.75;5084659;28;20040;-58
2022/08/25 03:30:12;;;;;;;22.25;14.02;;;;;;;20.44;64.87;100668.13;5084400;28;20020;-58
2022/08/25 03:32:38;;;;;;;22.25;14.73;;;;;;;20.51;64.67;100678.28;5084409;28;20229;-58
2022/08/25 03:35:05;;;;;;;23.20;14.85;;;;;;;20.56;64.36;100675.41;5082042;28;20032;-58
2022/08/25 03:37:30;;;;;;;20.55;15.15;;;;;;;20.63;63.85;100674.19;5084189;28;20024;-59
2022/08/25 03:39:56;;;;;;;21.38;15.05;;;;;;;20.66;63.90;100679.34;5080637;28;20029;-58
2022/08/25 03:42:22;;;;;;;23.83;16.13;;;;;;;20.64;63.96;100661.91;5075553;28;20345;-58
2022/08/25 03:44:48;;;;;;;22.63;15.60;;;;;;;20.78;63.67;100667.41;5084359;28;20024;-58
2022/08/25 03:47:14;;;;;;;26.55;16.75;;;;;;;20.85;63.36;100662.69;5083877;28;20024;-58
2022/08/25 03:49:40;;;;;;;23.40;16.65;;;;;;;20.83;62.92;100649.56;5081680;28;20363;-58
2022/08/25 03:52:05;;;;;;;25.73;16.85;;;;;;;20.99;62.83;100672.53;5101454;28;20039;-57
2022/08/25 03:54:31;;;;;;;26.65;17.63;;;;;;;21.08;62.69;100666.81;5088555;28;20040;-57
2022/08/25 03:56:56;;;;;;;30.63;19.48;;;;;;;21.11;62.44;100671.09;5073128;28;20078;-58
2022/08/25 03:59:22;;;;;;;24.83;17.98;;;;;;;21.17;62.54;100666.34;5082043;28;20093;-58
2022/08/25 04:01:48;;;;;;;27.75;18.45;;;;;;;21.15;62.40;100654.19;5077169;28;20322;-57
2022/08/25 04:04:15;;;;;;;26.77;18.98;;;;;;;21.31;61.77;100659.56;5064857;28;20032;-57
2022/08/25 04:06:42;;;;;;;28.10;18.45;;;;;;;21.30;62.12;100649.94;5076672;28;20029;-56
2022/08/25 04:09:08;;;;;;;26.58;19.45;;;;;;;21.45;61.77;100656.19;5091658;28;20023;-56
2022/08/25 04:11:34;;;;;;;30.80;18.85;;;;;;;21.53;61.18;100661.97;5099196;28;20021;-57
2022/08/25 04:14:01;;;;;;;28.50;19.50;;;;;;;21.59;60.79;100658.16;5083349;28;20214;-56
2022/08/25 04:16:32;;;;;;;31.00;18.83;;;;;;;21.66;60.46;100649.88;5083278;28;20036;-56
2022/08/25 04:19:02;;;;;;;29.42;18.08;;;;;;;21.53;60.16;100615.38;5083296;28;20025;-56
2022/08/25 04:21:28;;;;;;;26.60;18.23;;;;;;;21.79;60.31;100644.81;5083270;28;20055;-56
2022/08/25 04:23:55;;;;;;;31.17;19.17;;;;;;;21.90;60.13;100641.56;5083421;28;20088;-57
2022/08/25 04:26:31;;;;;;;30.33;18.63;;;;;;;21.98;59.53;100660.50;5085952;28;20313;-56
2022/08/25 04:28:58;;;;;;;28.60;17.98;;;;;;;22.07;59.32;100656.50;5103739;28;20023;-56
2022/08/25 04:31:26;;;;;;;28.33;18.67;;;;;;;22.14;58.79;100644.69;5103164;28;20047;-57
2022/08/25 04:33:52;;;;;;;28.75;19.00;;;;;;;22.22;59.03;100639.00;5088161;28;20024;-57
2022/08/25 04:36:19;;;;;;;29.15;18.80;;;;;;;22.29;59.07;100637.72;5083102;28;20070;-57
2022/08/25 04:38:46;;;;;;;29.55;17.50;;;;;;;22.35;58.66;100636.56;5083138;28;20040;-57
2022/08/25 04:41:14;;;;;;;28.75;16.92;;;;;;;22.22;58.43;100599.41;5084172;28;20028;-57
2022/08/25 04:43:41;;;;;;;29.00;17.30;;;;;;;22.56;57.81;100642.41;5103119;28;20028;-57
2022/08/25 04:46:11;;;;;;;25.27;17.38;;;;;;;22.61;57.97;100639.53;5086276;28;20376;-57
2022/08/25 04:48:38;;;;;;;24.50;16.33;;;;;;;22.69;57.45;100632.88;5083106;28;20032;-57
2022/08/25 04:51:11;;;;;;;28.23;17.38;;;;;;;22.79;56.07;100635.84;5091466;28;20038;-57
2022/08/25 04:53:38;;;;;;;27.63;16.13;;;;;;;22.86;57.13;100633.69;5103120;28;20035;-57
2022/08/25 04:56:09;;;;;;;25.10;15.60;;;;;;;22.92;56.82;100647.41;5086737;28;20040;-57
2022/08/25 04:58:36;;;;;;;31.05;17.73;;;;;;;22.99;57.52;100636.47;5066415;28;20323;-57
2022/08/25 05:01:15;;;;;;;26.25;16.13;;;;;;;23.08;56.16;100635.94;5099336;28;20020;-57
2022/08/25 05:03:42;;;;;;;23.23;16.08;;;;;;;23.18;54.92;100636.28;5089488;28;20217;-57
2022/08/25 05:06:08;;;;;;;30.13;16.35;;;;;;;23.26;54.88;100628.75;5082735;28;20025;-57
2022/08/25 05:08:34;;;;;;;30.88;16.73;;;;;;;23.38;54.24;100635.94;5082872;28;20028;-57
2022/08/25 05:11:09;;;;;;;24.90;15.65;;;;;;;23.28;54.37;100600.44;5082393;28;20382;-57
2022/08/25 05:13:35;;;;;;;26.77;16.60;;;;;;;23.57;53.79;100635.69;5082813;28;20032;-57
2022/08/25 05:16:01;;;;;;;27.42;16.33;;;;;;;23.68;53.89;100635.03;5082559;28;20087;-57
2022/08/25 05:18:30;;;;;;;26.38;15.93;;;;;;;23.78;52.86;100638.81;5084358;28;20027;-56
2022/08/25 05:21:00;;;;;;;27.58;14.48;;;;;;;23.87;53.61;100636.56;5086819;28;20387;-57
2022/08/25 05:23:26;;;;;;;30.58;14.88;;;;;;;23.94;53.02;100614.94;5086794;28;20028;-57
2022/08/25 05:25:52;;;;;;;26.40;14.57;;;;;;;24.10;52.66;100619.28;5086800;28;20024;-56
2022/08/25 05:28:19;;;;;;;25.42;13.98;;;;;;;24.19;52.42;100617.84;5086552;28;20037;-57
2022/08/25 05:30:47;;;;;;;24.42;14.75;;;;;;;24.29;52.40;100618.94;5086679;28;20054;-57
2022/08/25 05:33:14;;;;;;;21.73;13.73;;;;;;;24.38;52.73;100620.16;5086651;28;20032;-57
2022/08/25 05:35:40;;;;;;;27.98;14.63;;;;;;;24.49;51.69;100630.06;5091208;28;20039;-57
2022/08/25 05:38:06;;;;;;;21.00;13.68;;;;;;;24.59;51.62;100621.41;5106894;28;20024;-57
2022/08/25 05:40:31;;;;;;;24.38;13.60;;;;;;;24.75;51.66;100620.44;5066252;28;20028;-57
2022/08/25 05:42:57;;;;;;;18.35;13.27;;;;;;;24.83;51.31;100620.78;5081635;28;20048;-57
2022/08/25 05:45:23;;;;;;;23.25;13.05;;;;;;;24.95;51.35;100621.75;5097015;28;20044;-56
2022/08/25 05:47:49;;;;;;;24.08;12.98;;;;;;;25.06;51.11;100623.69;5100392;28;20024;-57
2022/08/25 05:50:16;;;;;;;18.63;12.70;;;;;;;25.14;50.28;100624.03;5086398;28;20079;-57
2022/08/25 05:52:42;;;;;;;27.35;12.63;;;;;;;25.27;50.02;100618.75;5086122;28;20150;-57
2022/08/25 05:55:08;;;;;;;23.38;12.85;;;;;;;25.35;49.50;100613.78;5086035;28;20035;-57
2022/08/25 05:57:34;;;;;;;28.77;12.20;;;;;;;25.47;49.04;100620.06;5086017;28;20317;-57
2022/08/25 06:00:00;;;;;;;17.55;11.65;;;;;;;25.57;48.75;100617.59;5077805;28;20252;-57
2022/08/25 06:02:45;;;;;;;20.85;11.88;;;;;;;25.67;48.60;100619.50;5085870;28;20029;-57
2022/08/25 06:05:16;;;;;;;19.85;12.27;;;;;;;25.53;47.25;100566.56;5085884;28;20329;-58
2022/08/25 06:07:42;;;;;;;24.00;11.50;;;;;;;25.89;46.68;100620.66;5085759;28;20293;-57
2022/08/25 06:10:12;;;;;;;21.85;11.38;;;;;;;25.94;46.17;100623.84;5085790;28;20229;-58
2022/08/25 06:12:40;;;;;;;19.70;11.43;;;;;;;25.87;44.67;100581.91;5101786;28;20024;-58
2022/08/25 06:15:07;;;;;;;16.20;10.73;;;;;;;26.13;45.69;100601.31;5085707;28;20329;-58
2022/08/25 06:17:39;;;;;;;18.08;11.13;;;;;;;26.28;45.74;100615.28;5085325;28;20309;-57
2022/08/25 06:20:08;;;;;;;17.08;10.60;;;;;;;26.35;44.47;100613.88;5085669;28;20028;-57
2022/08/25 06:22:34;;;;;;;14.18;10.55;;;;;;;26.42;44.64;100603.66;5085580;28;20021;-57
2022/08/25 06:25:00;;;;;;;14.32;10.45;;;;;;;26.55;45.35;100615.09;5085509;28;20395;-57
2022/08/25 06:27:26;;;;;;;18.38;10.10;;;;;;;26.59;45.25;100621.84;5096306;28;20027;-58
2022/08/25 06:29:51;;;;;;;17.05;9.73;;;;;;;26.64;44.87;100613.56;5099301;28;20210;-58
2022/08/25 06:32:17;;;;;;;16.88;9.65;;;;;;;26.72;43.24;100613.00;5085272;28;20314;-56
2022/08/25 06:34:42;;;;;;;13.05;9.45;;;;;;;26.85;42.66;100619.94;5085384;28;20032;-58
2022/08/25 06:37:08;;;;;;;13.80;8.95;;;;;;;26.93;42.41;100622.03;5085252;28;20021;-56
2022/08/25 06:39:34;;;;;;;20.23;9.63;;;;;;;27.04;40.94;100624.72;5085187;28;20028;-57
2022/08/25 06:42:00;;;;;;;16.90;9.45;;;;;;;27.11;42.26;100617.13;5085210;28;20339;-56
2022/08/25 06:44:26;;;;;;;14.07;8.75;;;;;;;27.12;42.46;100610.00;5087504;28;20032;-57
2022/08/25 06:46:52;;;;;;;17.70;9.77;;;;;;;27.18;41.87;100607.72;5105545;28;20032;-57
2022/08/25 06:49:18;;;;;;;16.55;9.45;;;;;;;27.26;41.11;100603.63;5087371;28;20043;-56
2022/08/25 06:51:44;;;;;;;17.55;9.70;;;;;;;27.33;41.17;100607.50;5085136;28;20032;-57
2022/08/25 06:54:11;;;;;;;14.88;8.70;;;;;;;27.46;40.91;100600.28;5084941;28;20051;-57
2022/08/25 06:56:39;;;;;;;16.17;9.43;;;;;;;27.37;40.94;100571.75;5085388;28;20081;-57
2022/08/25 06:59:06;;;;;;;21.02;9.80;;;;;;;27.71;40.67;100609.00;5084791;28;20313;-57
2022/08/25 07:01:32;;;;;;;20.65;8.63;;;;;;;27.80;40.28;100607.44;5083739;28;20025;-57
2022/08/25 07:03:59;;;;;;;15.63;9.05;;;;;;;27.79;38.97;100564.00;5084609;28;20317;-57
2022/08/25 07:06:28;;;;;;;14.23;9.18;;;;;;;28.12;38.46;100564.06;5084821;28;20056;-57
2022/08/25 07:08:54;;;;;;;14.02;9.25;;;;;;;28.48;39.75;100604.69;5090755;28;20024;-57
2022/08/25 07:11:20;;;;;;;21.65;9.35;;;;;;;28.55;39.22;100605.88;5104879;28;20024;-57
2022/08/25 07:13:46;;;;;;;19.85;9.98;;;;;;;28.56;38.72;100599.53;5104999;28;20565;-57
2022/08/25 07:16:14;;;;;;;16.40;9.75;;;;;;;28.69;39.01;100605.59;5088233;28;20047;-57
2022/08/25 07:18:40;;;;;;;13.50;8.82;;;;;;;28.81;36.18;100600.22;5084658;28;20066;-57
2022/08/25 07:21:05;;;;;;;13.70;9.52;;;;;;;28.83;39.03;100593.78;5084475;28;20029;-58
2022/08/25 07:23:31;;;;;;;12.68;8.60;;;;;;;28.83;38.54;100587.59;5084331;28;20024;-58
2022/08/25 07:26:10;;;;;;;16.55;8.80;;;;;;;28.61;36.97;100549.38;5084396;28;20020;-59
2022/08/25 07:28:36;;;;;;;16.55;9.18;;;;;;;28.87;38.37;100587.19;5084253;28;20075;-58
2022/08/25 07:31:01;;;;;;;20.15;9.57;;;;;;;28.87;38.71;100594.34;5083114;28;20106;-58
2022/08/25 07:33:27;;;;;;;12.60;9.48;;;;;;;28.91;37.56;100591.28;5094619;28;20020;-58
2022/08/25 07:35:53;;;;;;;14.43;9.32;;;;;;;29.00;38.17;100596.84;5098901;28;20198;-58
2022/08/25 07:38:18;;;;;;;13.05;8.80;;;;;;;29.04;38.05;100593.75;5084227;28;20024;-58
2022/08/25 07:40:44;;;;;;;13.23;9.07;;;;;;;29.04;38.19;100585.75;5083665;28;20088;-58
2022/08/25 07:43:10;;;;;;;12.02;8.23;;;;;;;29.12;36.58;100584.25;5083891;28;20053;-59
2022/08/25 07:45:38;;;;;;;18.15;8.95;;;;;;;28.91;37.02;100553.13;5092541;28;20054;-57
2022/08/25 07:48:09;;;;;;;9.48;7.47;;;;;;;29.17;35.54;100582.06;5078349;28;20025;-58
2022/08/25 07:50:41;;;;;;;;;;;;;;;29.30;35.36;100580.03;5067700;28;20612;-57
2022/08/25 07:53:07;;;;;;;9.98;7.95;;;;;;;29.24;36.57;100581.41;5065464;28;20244;-58
2022/08/25 07:55:35;;;;;;;9.98;8.18;;;;;;;29.14;35.98;100582.31;5082016;28;20325;-58
2022/08/25 07:58:02;;;;;;;11.93;7.20;;;;;;;29.37;35.88;100581.22;5079554;28;20048;-57
2022/08/25 08:00:29;;;;;;;10.32;7.68;;;;;;;29.40;34.83;100588.97;5073830;28;20020;-58
2022/08/25 08:02:58;;;;;;;8.88;7.20;;;;;;;29.27;35.49;100572.31;5077912;28;20036;-58
2022/08/25 08:05:25;;;;;;;8.55;7.65;;;;;;;29.29;35.78;100569.50;5065916;28;20104;-57
2022/08/25 08:07:52;;;;;;;8.10;7.18;;;;;;;29.38;35.26;100563.38;5095022;28;20313;-57
2022/08/25 08:10:18;;;;;;;9.07;8.05;;;;;;;29.37;35.22;100559.00;5072923;28;20029;-56
2022/08/25 08:12:44;;;;;;;14.32;8.07;;;;;;;29.54;34.07;100560.22;5075355;28;20134;-58
2022/08/25 08:15:10;;;;;;;8.77;7.97;;;;;;;29.68;33.94;100567.84;5083533;28;20032;-58
2022/08/25 08:17:36;;;;;;;13.68;7.82;;;;;;;29.73;33.35;100544.28;5083354;28;20321;-57
2022/08/25 08:20:07;;;;;;;16.05;8.35;;;;;;;29.48;35.55;100558.09;5070964;28;20033;-58
2022/08/25 08:22:37;;;;;;;14.63;8.07;;;;;;;29.41;35.13;100549.78;5101454;28;20023;-58
2022/08/25 08:25:03;;;;;;;12.93;8.30;;;;;;;29.44;35.01;100549.50;5088383;28;20095;-57
2022/08/25 08:27:29;;;;;;;12.18;8.30;;;;;;;29.50;35.06;100556.97;5082292;28;20325;-58
2022/08/25 08:29:55;;;;;;;10.88;8.65;;;;;;;29.55;34.99;100540.56;5088623;28;20089;-59
2022/08/25 08:32:21;;;;;;;13.10;8.50;;;;;;;29.64;34.57;100546.91;5086489;28;20021;-59
2022/08/25 08:34:47;;;;;;;14.75;9.13;;;;;;;29.69;35.25;100545.53;5082520;28;20186;-59
2022/08/25 08:37:14;;;;;;;10.90;7.60;;;;;;;29.92;32.65;100532.81;5082774;28;20024;-58
2022/08/25 08:39:40;;;;;;;8.65;7.35;;;;;;;29.94;34.62;100532.66;5084702;28;20016;-58
2022/08/25 08:42:41;;;;;;;12.70;7.72;;;;;;;30.04;34.43;100546.88;5089867;28;20035;-59
2022/08/25 08:45:07;;;;;;;12.50;8.15;;;;;;;30.01;32.42;100541.81;5084220;28;20048;-58
2022/08/25 08:47:57;;;;;;;14.55;8.30;;;;;;;30.09;35.02;100530.44;5082583;28;20036;-58
2022/08/25 08:50:41;;;;;;;10.80;7.25;;;;;;;30.17;34.13;100535.97;5081238;28;20032;-58
2022/08/25 08:53:56;;;;;;;11.70;8.13;;;;;;;30.41;31.65;100540.88;5083392;28;20024;-59
2022/08/25 08:56:27;;;;;;;9.20;6.78;;;;;;;30.79;31.08;100555.22;5080974;28;20044;-59
2022/08/25 08:59:29;;;;;;;7.17;6.43;;;;;;;30.84;29.18;100533.38;5081039;28;20028;-59
2022/08/25 09:01:58;;;;;;;8.07;7.28;;;;;;;30.87;29.75;100490.31;5069282;28;20037;-59
2022/08/25 09:05:13;;;;;;;11.55;7.20;;;;;;;30.80;31.17;100499.91;5081292;28;20021;-58
2022/08/25 09:08:02;;;;;;;10.07;7.38;;;;;;;30.88;31.52;100532.13;5080005;28;20032;-58
2022/08/25 09:10:39;;;;;;;8.00;6.88;;;;;;;30.89;30.47;100482.97;5081517;28;20027;-59
2022/08/25 09:13:42;;;;;;;8.23;6.03;;;;;;;31.31;28.15;100532.56;5081981;28;20050;-59
2022/08/25 09:18:54;;;;;;;10.15;7.15;;;;;;;31.29;29.31;100521.19;5080497;28;20033;-59
2022/08/25 09:21:42;;;;;;;8.80;7.55;;;;;;;31.35;29.31;100525.09;5081723;28;20024;-58
2022/08/25 09:24:32;;;;;;;9.20;7.35;;;;;;;31.33;30.34;100525.25;5082219;28;20036;-58
2022/08/25 09:27:03;;;;;;;7.20;6.50;;;;;;;31.05;30.12;100487.75;5080218;28;20024;-58
2022/08/25 09:29:49;;;;;;;10.70;7.17;;;;;;;31.04;28.94;100478.03;5083427;28;20166;-59
2022/08/25 09:32:16;;;;;;;8.52;7.28;;;;;;;31.34;29.55;100513.56;5080386;28;20829;-58
2022/08/25 09:34:43;;;;;;;9.38;7.70;;;;;;;31.10;29.24;100511.41;5094715;28;20024;-58
2022/08/25 09:37:09;;;;;;;12.32;7.53;;;;;;;31.10;29.06;100509.56;5082558;28;20026;-58
2022/08/25 09:39:35;;;;;;;9.88;7.85;;;;;;;31.22;29.02;100493.31;5092951;28;20020;-58
2022/08/25 09:42:01;;;;;;;7.93;7.22;;;;;;;31.32;29.26;100502.97;5096608;28;20258;-58
2022/08/25 09:44:42;;;;;;;9.32;7.10;;;;;;;31.13;29.71;100503.09;5082033;28;20068;-58
2022/08/25 09:47:16;;;;;;;7.72;6.95;;;;;;;31.00;31.26;100508.72;5082547;28;20055;-58
2022/08/25 09:49:46;;;;;;;8.38;7.15;;;;;;;30.81;29.63;100472.16;5102410;28;20032;-57
2022/08/25 09:52:24;;;;;;;10.80;7.85;;;;;;;31.16;29.83;100502.78;5082687;28;20080;-57
2022/08/25 09:54:50;;;;;;;11.82;8.05;;;;;;;31.21;29.84;100492.50;5081798;28;20355;-58
2022/08/25 09:57:42;;;;;;;8.75;7.38;;;;;;;31.34;29.44;100505.53;5079101;28;20317;-58
2022/08/25 10:00:14;;;;;;;10.13;6.72;;;;;;;31.40;28.02;100494.22;5079858;28;20078;-58
2022/08/25 10:02:42;;;;;;;7.60;6.90;;;;;;;31.47;28.71;100483.78;5079683;28;20070;-58
2022/08/25 10:05:24;;;;;;;8.15;7.22;;;;;;;31.35;28.21;100475.06;5084416;28;20031;-57
2022/08/25 10:07:58;;;;;;;15.13;6.65;;;;;;;31.41;27.67;100484.34;5070730;28;20106;-57
2022/08/25 10:10:29;;;;;;;10.38;6.80;;;;;;;31.07;27.52;100453.66;5085556;28;20028;-57
2022/08/25 10:12:59;;;;;;;10.02;7.20;;;;;;;31.39;28.59;100481.81;5079734;28;20027;-57
2022/08/25 10:15:34;;;;;;;8.35;7.05;;;;;;;31.42;28.84;100481.50;5084830;28;20024;-57
2022/08/25 10:18:28;;;;;;;7.50;6.82;;;;;;;31.44;27.70;100474.19;5085282;28;20052;-57
2022/08/25 10:21:03;;;;;;;9.15;7.38;;;;;;;31.32;28.91;100484.25;5081249;28;20032;-56
2022/08/25 10:23:29;;;;;;;9.60;7.50;;;;;;;31.14;29.73;100477.97;5084169;28;20047;-57
2022/08/25 10:26:02;;;;;;;10.80;6.75;;;;;;;30.92;27.91;100442.56;5083109;28;20361;-57
2022/08/25 10:28:30;;;;;;;9.27;7.30;;;;;;;31.16;28.41;100470.66;5085563;28;20071;-58
2022/08/25 10:31:30;;;;;;;8.57;6.75;;;;;;;31.27;28.68;100467.78;5086494;28;20028;-56
2022/08/25 10:34:28;;;;;;;8.00;6.63;;;;;;;31.19;26.41;100459.66;5084879;28;20047;-56
2022/08/25 10:37:27;;;;;;;7.90;6.88;;;;;;;31.07;27.78;100424.22;5083163;28;20033;-56
2022/08/25 10:40:11;;;;;;;14.48;13.00;;;;;;;31.43;26.28;100456.44;5084749;28;20135;-57
2022/08/25 10:43:06;;;;;;;7.35;6.57;;;;;;;31.44;27.64;100459.94;5074018;28;20366;-57
2022/08/25 10:46:01;;;;;;;13.38;7.70;;;;;;;31.25;29.04;100448.34;5094635;28;20032;-57
2022/08/25 10:48:49;;;;;;;9.90;7.93;;;;;;;31.09;29.34;100457.03;5081023;28;20044;-58
2022/08/25 10:51:50;;;;;;;8.60;7.25;;;;;;;31.29;29.22;100449.75;5085127;28;20240;-58
2022/08/25 10:54:33;;;;;;;8.97;8.17;;;;;;;31.22;29.04;100445.16;5084413;28;20036;-57
2022/08/25 10:57:18;;;;;;;10.32;7.45;;;;;;;31.20;28.98;100437.25;5084369;28;20063;-57
2022/08/25 10:59:49;;;;;;;10.07;7.70;;;;;;;31.03;28.94;100444.25;5087171;28;20104;-57
2022/08/25 11:02:41;;;;;;;10.77;7.97;;;;;;;31.13;27.86;100423.63;5104976;28;20032;-58
2022/08/25 11:05:09;;;;;;;15.15;8.77;;;;;;;31.12;27.59;100432.63;5105422;28;20022;-57
2022/08/25 11:07:40;;;;;;;10.73;7.20;;;;;;;30.99;29.22;100387.47;5104832;28;20047;-57
2022/08/25 11:10:38;;;;;;;8.55;7.40;;;;;;;31.13;28.21;100423.63;5105106;28;20255;-58
2022/08/25 11:13:10;;;;;;;9.52;7.68;;;;;;;30.65;27.88;100379.16;5090023;28;20340;-57
2022/08/25 11:15:39;;;;;;;11.70;7.82;;;;;;;30.94;28.27;100423.66;5094569;28;20031;-57
2022/08/25 11:18:11;;;;;;;8.65;7.78;;;;;;;30.73;29.26;100399.84;5098328;28;20047;-57
2022/08/25 11:21:13;;;;;;;11.02;7.70;;;;;;;30.84;29.16;100420.19;5080138;28;20345;-58
2022/08/25 11:23:42;;;;;;;;;;;;;;;30.69;29.76;100419.84;5082594;28;20040;-58
2022/08/25 11:26:16;;;;;;;10.10;8.15;;;;;;;30.64;28.55;100420.25;5081147;28;19904;-58
2022/08/25 11:28:50;;;;;;;8.48;7.57;;;;;;;30.72;28.94;100408.84;5083869;28;20348;-58
2022/08/25 11:31:18;;;;;;;9.20;7.85;;;;;;;30.64;30.06;100401.53;5081098;28;20096;-58
2022/08/25 11:33:44;;;;;;;8.63;7.72;;;;;;;30.66;30.63;100407.59;5084165;28;20060;-58
2022/08/25 11:36:28;;;;;;;12.45;7.75;;;;;;;30.73;30.69;100405.19;5083916;28;20070;-58